sensor_id;sensor_type;location;lat;lon;timestamp;pressure;altitude;pressure_sealevel;temperature;humidity
35758;BME280;21879;50.110;18.900;2024-03-06T00:01:40;98811.25;;;22.86;49.77
35758;BME280;21879;50.110;18.900;2024-03-06T00:11:46;98815.83;;;22.86;49.77
35758;BME280;21879;50.110;18.900;2024-03-06T00:21:52;98820.77;;;22.86;49.82
35758;BME280;21879;50.110;18.900;2024-03-06T00:31:57;98821.48;;;22.86;49.68
35758;BME280;21879;50.110;18.900;2024-03-06T00:42:03;98830.86;;;22.87;49.53
35758;BME280;21879;50.110;18.900;2024-03-06T00:52:09;98838.84;;;22.86;49.52
35758;BME280;21879;50.110;18.900;2024-03-06T01:02:15;98836.08;;;22.86;49.42
35758;BME280;21879;50.110;18.900;2024-03-06T01:12:20;98837.00;;;22.85;49.26
35758;BME280;21879;50.110;18.900;2024-03-06T01:22:26;98837.40;;;22.84;49.30
35758;BME280;21879;50.110;18.900;2024-03-06T01:32:32;98842.25;;;22.83;49.21
35758;BME280;21879;50.110;18.900;2024-03-06T01:42:38;98849.23;;;22.82;49.13
35758;BME280;21879;50.110;18.900;2024-03-06T01:52:44;98857.77;;;22.81;49.08
35758;BME280;21879;50.110;18.900;2024-03-06T02:02:49;98859.94;;;22.81;48.93
35758;BME280;21879;50.110;18.900;2024-03-06T02:12:55;98860.27;;;22.81;48.94
35758;BME280;21879;50.110;18.900;2024-03-06T02:23:02;98855.48;;;22.81;48.82
35758;BME280;21879;50.110;18.900;2024-03-06T02:33:08;98855.89;;;22.80;48.62
35758;BME280;21879;50.110;18.900;2024-03-06T02:43:14;98854.86;;;22.79;48.58
35758;BME280;21879;50.110;18.900;2024-03-06T02:53:20;98857.20;;;22.79;48.49
35758;BME280;21879;50.110;18.900;2024-03-06T03:03:26;98862.52;;;22.79;48.39
35758;BME280;21879;50.110;18.900;2024-03-06T03:13:31;98870.88;;;22.79;48.28
35758;BME280;21879;50.110;18.900;2024-03-06T03:23:37;98875.85;;;22.78;48.21
35758;BME280;21879;50.110;18.900;2024-03-06T03:33:43;98882.27;;;22.78;48.08
35758;BME280;21879;50.110;18.900;2024-03-06T03:43:49;98883.33;;;22.78;48.10
35758;BME280;21879;50.110;18.900;2024-03-06T03:53:55;98887.23;;;22.77;48.00
35758;BME280;21879;50.110;18.900;2024-03-06T04:04:01;98888.19;;;22.77;47.86
35758;BME280;21879;50.110;18.900;2024-03-06T04:14:06;98893.01;;;22.75;47.79
35758;BME280;21879;50.110;18.900;2024-03-06T04:24:12;98894.06;;;22.75;47.78
35758;BME280;21879;50.110;18.900;2024-03-06T04:34:19;98894.61;;;22.75;47.73
35758;BME280;21879;50.110;18.900;2024-03-06T04:44:25;98902.27;;;22.75;47.58
35758;BME280;21879;50.110;18.900;2024-03-06T04:54:30;98907.95;;;22.74;47.52
35758;BME280;21879;50.110;18.900;2024-03-06T05:04:36;98907.11;;;22.74;47.44
35758;BME280;21879;50.110;18.900;2024-03-06T05:14:59;98910.67;;;22.73;47.34
35758;BME280;21879;50.110;18.900;2024-03-06T05:25:23;98925.55;;;22.73;47.32
35758;BME280;21879;50.110;18.900;2024-03-06T05:35:46;98935.10;;;22.74;47.20
35758;BME280;21879;50.110;18.900;2024-03-06T05:46:09;98944.89;;;22.73;47.14
35758;BME280;21879;50.110;18.900;2024-03-06T05:56:33;98950.35;;;22.73;47.15
35758;BME280;21879;50.110;18.900;2024-03-06T06:06:56;98961.02;;;22.73;47.16
35758;BME280;21879;50.110;18.900;2024-03-06T06:17:01;98967.95;;;22.73;46.91
35758;BME280;21879;50.110;18.900;2024-03-06T06:27:08;98972.92;;;22.73;46.99
35758;BME280;21879;50.110;18.900;2024-03-06T06:37:14;98973.23;;;22.73;46.96
35758;BME280;21879;50.110;18.900;2024-03-06T06:47:20;98978.35;;;22.74;46.87
35758;BME280;21879;50.110;18.900;2024-03-06T06:57:25;98978.15;;;22.68;45.49
35758;BME280;21879;50.110;18.900;2024-03-06T07:07:31;98971.42;;;22.52;43.49
35758;BME280;21879;50.110;18.900;2024-03-06T07:17:36;98982.70;;;22.39;43.03
35758;BME280;21879;50.110;18.900;2024-03-06T07:27:42;98984.85;;;22.42;43.93
35758;BME280;21879;50.110;18.900;2024-03-06T07:37:48;98990.98;;;22.47;44.41
35758;BME280;21879;50.110;18.900;2024-03-06T07:47:54;98995.11;;;22.53;45.38
35758;BME280;21879;50.110;18.900;2024-03-06T07:57:59;99000.73;;;22.60;46.28
35758;BME280;21879;50.110;18.900;2024-03-06T08:08:05;99007.69;;;22.66;46.29
35758;BME280;21879;50.110;18.900;2024-03-06T08:18:10;99014.75;;;22.70;46.22
35758;BME280;21879;50.110;18.900;2024-03-06T08:28:16;99013.18;;;22.72;46.23
35758;BME280;21879;50.110;18.900;2024-03-06T08:38:21;99012.73;;;22.74;46.14
35758;BME280;21879;50.110;18.900;2024-03-06T08:48:26;99010.02;;;22.75;46.10
35758;BME280;21879;50.110;18.900;2024-03-06T08:58:31;99013.85;;;22.76;46.00
35758;BME280;21879;50.110;18.900;2024-03-06T09:08:36;99019.76;;;22.79;45.99
35758;BME280;21879;50.110;18.900;2024-03-06T09:18:41;99019.29;;;22.81;45.90
35758;BME280;21879;50.110;18.900;2024-03-06T09:28:46;99012.98;;;22.83;45.83
35758;BME280;21879;50.110;18.900;2024-03-06T09:38:51;99011.81;;;22.84;45.97
35758;BME280;21879;50.110;18.900;2024-03-06T09:48:58;99009.07;;;22.86;46.62
35758;BME280;21879;50.110;18.900;2024-03-06T09:59:06;99013.71;;;22.92;48.94
35758;BME280;21879;50.110;18.900;2024-03-06T10:09:10;99018.23;;;23.01;50.30
35758;BME280;21879;50.110;18.900;2024-03-06T10:19:18;99016.02;;;23.08;50.68
35758;BME280;21879;50.110;18.900;2024-03-06T10:29:24;99015.82;;;23.12;50.49
35758;BME280;21879;50.110;18.900;2024-03-06T10:39:29;99014.11;;;23.11;50.14
35758;BME280;21879;50.110;18.900;2024-03-06T10:49:34;99016.33;;;23.09;50.14
35758;BME280;21879;50.110;18.900;2024-03-06T10:59:39;99017.89;;;23.07;50.15
35758;BME280;21879;50.110;18.900;2024-03-06T11:09:45;99017.46;;;23.05;49.69
35758;BME280;21879;50.110;18.900;2024-03-06T11:30:31;98999.88;;;22.95;49.86
35758;BME280;21879;50.110;18.900;2024-03-06T11:40:42;98997.17;;;22.93;50.27
35758;BME280;21879;50.110;18.900;2024-03-06T11:50:47;98994.08;;;22.88;50.46
35758;BME280;21879;50.110;18.900;2024-03-06T12:00:52;98990.65;;;22.86;50.37
35758;BME280;21879;50.110;18.900;2024-03-06T12:10:59;98982.91;;;22.85;50.40
35758;BME280;21879;50.110;18.900;2024-03-06T12:21:04;98981.34;;;22.81;50.39
35758;BME280;21879;50.110;18.900;2024-03-06T12:31:11;98977.73;;;22.79;50.49
35758;BME280;21879;50.110;18.900;2024-03-06T12:41:16;98978.36;;;22.77;50.47
35758;BME280;21879;50.110;18.900;2024-03-06T12:51:22;98983.80;;;22.78;50.62
35758;BME280;21879;50.110;18.900;2024-03-06T13:01:27;98986.59;;;22.76;50.52
35758;BME280;21879;50.110;18.900;2024-03-06T13:11:32;98986.61;;;22.72;50.88
35758;BME280;21879;50.110;18.900;2024-03-06T13:21:37;98984.99;;;22.69;50.87
35758;BME280;21879;50.110;18.900;2024-03-06T13:31:42;98987.61;;;22.67;50.88
35758;BME280;21879;50.110;18.900;2024-03-06T13:41:46;98984.25;;;22.63;50.80
35758;BME280;21879;50.110;18.900;2024-03-06T13:51:51;98982.05;;;22.61;50.53
35758;BME280;21879;50.110;18.900;2024-03-06T14:01:56;98984.17;;;22.62;50.31
35758;BME280;21879;50.110;18.900;2024-03-06T14:12:02;98984.79;;;22.60;50.17
35758;BME280;21879;50.110;18.900;2024-03-06T14:22:07;98988.83;;;22.61;51.06
35758;BME280;21879;50.110;18.900;2024-03-06T14:32:12;98986.18;;;22.60;51.83
35758;BME280;21879;50.110;18.900;2024-03-06T14:42:17;98997.30;;;22.64;51.88
35758;BME280;21879;50.110;18.900;2024-03-06T14:52:22;98994.86;;;22.67;52.41
35758;BME280;21879;50.110;18.900;2024-03-06T15:02:27;98994.64;;;22.68;52.74
35758;BME280;21879;50.110;18.900;2024-03-06T15:12:32;98996.51;;;22.73;53.53
35758;BME280;21879;50.110;18.900;2024-03-06T15:22:37;98994.41;;;22.79;53.55
35758;BME280;21879;50.110;18.900;2024-03-06T15:32:44;98995.89;;;22.81;53.51
35758;BME280;21879;50.110;18.900;2024-03-06T15:42:49;98997.35;;;22.80;53.98
35758;BME280;21879;50.110;18.900;2024-03-06T15:52:56;98995.81;;;22.79;54.17
35758;BME280;21879;50.110;18.900;2024-03-06T16:03:02;98996.95;;;22.78;54.30
35758;BME280;21879;50.110;18.900;2024-03-06T16:13:07;99000.73;;;22.76;54.34
35758;BME280;21879;50.110;18.900;2024-03-06T16:23:11;99003.82;;;22.75;54.39
35758;BME280;21879;50.110;18.900;2024-03-06T16:33:16;99007.02;;;22.74;54.42
35758;BME280;21879;50.110;18.900;2024-03-06T16:43:21;99012.37;;;22.78;54.34
35758;BME280;21879;50.110;18.900;2024-03-06T16:53:27;99015.05;;;22.81;54.18
35758;BME280;21879;50.110;18.900;2024-03-06T17:03:31;99022.47;;;22.81;54.40
35758;BME280;21879;50.110;18.900;2024-03-06T17:13:37;99022.98;;;22.81;54.39
35758;BME280;21879;50.110;18.900;2024-03-06T17:23:45;99031.48;;;22.85;54.59
35758;BME280;21879;50.110;18.900;2024-03-06T17:33:53;99031.96;;;22.86;54.37
35758;BME280;21879;50.110;18.900;2024-03-06T17:43:59;99033.24;;;22.85;54.40
35758;BME280;21879;50.110;18.900;2024-03-06T17:54:04;99035.08;;;22.84;54.45
35758;BME280;21879;50.110;18.900;2024-03-06T18:04:14;99032.34;;;22.82;54.47
35758;BME280;21879;50.110;18.900;2024-03-06T18:14:20;99040.00;;;22.81;54.45
35758;BME280;21879;50.110;18.900;2024-03-06T18:24:27;99040.88;;;22.81;54.44
35758;BME280;21879;50.110;18.900;2024-03-06T18:34:32;99040.78;;;22.80;54.37
35758;BME280;21879;50.110;18.900;2024-03-06T18:44:38;99040.14;;;22.79;54.32
35758;BME280;21879;50.110;18.900;2024-03-06T18:54:44;99042.15;;;22.78;54.28
35758;BME280;21879;50.110;18.900;2024-03-06T19:04:49;99048.89;;;22.78;54.09
35758;BME280;21879;50.110;18.900;2024-03-06T19:14:56;99055.27;;;22.78;54.06
35758;BME280;21879;50.110;18.900;2024-03-06T19:25:03;99063.16;;;22.79;53.95
35758;BME280;21879;50.110;18.900;2024-03-06T19:35:10;99073.93;;;22.80;53.72
35758;BME280;21879;50.110;18.900;2024-03-06T19:45:16;99080.16;;;22.80;53.68
35758;BME280;21879;50.110;18.900;2024-03-06T19:55:22;99082.66;;;22.79;53.72
35758;BME280;21879;50.110;18.900;2024-03-06T20:05:28;99090.88;;;22.81;53.80
35758;BME280;21879;50.110;18.900;2024-03-06T20:15:35;99092.98;;;22.82;53.58
35758;BME280;21879;50.110;18.900;2024-03-06T20:25:42;99092.62;;;22.82;53.56
35758;BME280;21879;50.110;18.900;2024-03-06T20:35:48;99096.73;;;22.81;53.48
35758;BME280;21879;50.110;18.900;2024-03-06T20:45:54;99104.59;;;22.80;53.24
35758;BME280;21879;50.110;18.900;2024-03-06T20:56:00;99105.52;;;22.79;53.16
35758;BME280;21879;50.110;18.900;2024-03-06T21:06:06;99109.98;;;22.79;53.16
35758;BME280;21879;50.110;18.900;2024-03-06T21:16:12;99113.55;;;22.78;52.91
35758;BME280;21879;50.110;18.900;2024-03-06T21:26:18;99116.63;;;22.77;52.83
35758;BME280;21879;50.110;18.900;2024-03-06T21:36:23;99117.95;;;22.76;52.71
35758;BME280;21879;50.110;18.900;2024-03-06T21:46:29;99121.19;;;22.75;52.66
35758;BME280;21879;50.110;18.900;2024-03-06T21:56:36;99126.56;;;22.73;52.62
35758;BME280;21879;50.110;18.900;2024-03-06T22:06:42;99129.84;;;22.72;52.47
35758;BME280;21879;50.110;18.900;2024-03-06T22:16:48;99131.48;;;22.71;52.32
35758;BME280;21879;50.110;18.900;2024-03-06T22:37:13;99132.77;;;22.70;52.15
35758;BME280;21879;50.110;18.900;2024-03-06T22:47:19;99131.26;;;22.68;52.00
35758;BME280;21879;50.110;18.900;2024-03-06T22:57:24;99132.17;;;22.68;51.97
35758;BME280;21879;50.110;18.900;2024-03-06T23:07:30;99138.20;;;22.68;51.98
35758;BME280;21879;50.110;18.900;2024-03-06T23:17:35;99139.65;;;22.67;51.83
35758;BME280;21879;50.110;18.900;2024-03-06T23:27:42;99143.96;;;22.66;51.67
35758;BME280;21879;50.110;18.900;2024-03-06T23:37:47;99143.66;;;22.65;51.56
35758;BME280;21879;50.110;18.900;2024-03-06T23:47:53;99145.27;;;22.65;51.53
35758;BME280;21879;50.110;18.900;2024-03-06T23:57:58;99143.73;;;22.64;51.49
